CYSZ weather

Ste Anne Des Monts Airport
Ste-Anne-Des-Monts, Quebec, Canada

Public forecast

Using degrees Celsius for public forecast. Weather courtesy of forecast.io.

METAR (pilot weather report)

Closest report is Baie Comeau Airport, 65.8 nm (121.9 km) W. Retrieved 2019/05/20 23:00 UTC (57 minutes ago):

CYBC 202300Z AUTO 09016G21KT 8SM -RA BKN005 OVC016 06/05 A2970 RMK SLP061

TAF (pilot weather forecast)

Closest forecast is Baie Comeau Airport, 65.8 nm (121.9 km) W. Retrieved 2019/05/20 20:00 UTC (4 hours ago):

TAF CYBC 201938Z 2020/2108 08015G25KT 4SM -RA BR BKN006 OVC020 TEMPO 2020/2104 6SM -RA BR SCT006 OVC020 FM210400 08015G25KT 4SM -RA BR OVC005 TEMPO 2104/2108 6SM -RA BR SCT005 OVC010 RMK FCST BASED ON AUTO OBS. NXT FCST BY 210200Z